sensor_id;sensor_type;location;lat;lon;timestamp;P1;durP1;ratioP1;P2;durP2;ratioP2
21492;SDS011;10908;50.690;4.400;2023-08-12T00:01:38;10.30;;;4.10;;
21492;SDS011;10908;50.690;4.400;2023-08-12T00:04:04;9.55;;;3.92;;
21492;SDS011;10908;50.690;4.400;2023-08-12T00:06:30;8.65;;;3.90;;
21492;SDS011;10908;50.690;4.400;2023-08-12T00:08:56;9.27;;;4.30;;
21492;SDS011;10908;50.690;4.400;2023-08-12T00:11:21;11.85;;;4.28;;
21492;SDS011;10908;50.690;4.400;2023-08-12T00:13:47;10.90;;;4.47;;
21492;SDS011;10908;50.690;4.400;2023-08-12T00:16:13;11.07;;;4.30;;
21492;SDS011;10908;50.690;4.400;2023-08-12T00:18:38;10.38;;;4.47;;
21492;SDS011;10908;50.690;4.400;2023-08-12T00:21:07;12.13;;;4.68;;
21492;SDS011;10908;50.690;4.400;2023-08-12T00:23:38;10.77;;;4.40;;
21492;SDS011;10908;50.690;4.400;2023-08-12T00:26:09;8.32;;;4.20;;
21492;SDS011;10908;50.690;4.400;2023-08-12T00:28:35;14.30;;;4.53;;
21492;SDS011;10908;50.690;4.400;2023-08-12T00:31:01;12.85;;;4.93;;
21492;SDS011;10908;50.690;4.400;2023-08-12T00:33:27;13.00;;;4.70;;
21492;SDS011;10908;50.690;4.400;2023-08-12T00:35:53;10.90;;;4.90;;
21492;SDS011;10908;50.690;4.400;2023-08-12T00:38:18;13.40;;;4.63;;
21492;SDS011;10908;50.690;4.400;2023-08-12T00:40:44;13.20;;;4.72;;
21492;SDS011;10908;50.690;4.400;2023-08-12T00:43:09;10.77;;;4.85;;
21492;SDS011;10908;50.690;4.400;2023-08-12T00:45:35;9.13;;;5.30;;
21492;SDS011;10908;50.690;4.400;2023-08-12T00:48:02;11.35;;;5.68;;
21492;SDS011;10908;50.690;4.400;2023-08-12T00:50:28;12.52;;;5.63;;
21492;SDS011;10908;50.690;4.400;2023-08-12T00:52:55;16.00;;;5.45;;
21492;SDS011;10908;50.690;4.400;2023-08-12T00:55:21;14.32;;;5.18;;
21492;SDS011;10908;50.690;4.400;2023-08-12T00:57:47;14.13;;;6.22;;
21492;SDS011;10908;50.690;4.400;2023-08-12T01:00:13;13.25;;;5.70;;
21492;SDS011;10908;50.690;4.400;2023-08-12T01:02:42;11.60;;;5.90;;
21492;SDS011;10908;50.690;4.400;2023-08-12T01:05:13;14.00;;;6.03;;
21492;SDS011;10908;50.690;4.400;2023-08-12T01:07:39;13.48;;;5.93;;
21492;SDS011;10908;50.690;4.400;2023-08-12T01:10:06;12.40;;;5.90;;
21492;SDS011;10908;50.690;4.400;2023-08-12T01:12:34;13.30;;;5.80;;
21492;SDS011;10908;50.690;4.400;2023-08-12T01:17:36;13.80;;;6.07;;
21492;SDS011;10908;50.690;4.400;2023-08-12T01:20:05;12.18;;;5.55;;
21492;SDS011;10908;50.690;4.400;2023-08-12T01:22:38;13.70;;;6.38;;
21492;SDS011;10908;50.690;4.400;2023-08-12T01:25:05;15.65;;;6.07;;
21492;SDS011;10908;50.690;4.400;2023-08-12T01:27:33;15.77;;;5.82;;
21492;SDS011;10908;50.690;4.400;2023-08-12T01:30:04;15.98;;;6.10;;
21492;SDS011;10908;50.690;4.400;2023-08-12T01:32:36;12.75;;;5.78;;
21492;SDS011;10908;50.690;4.400;2023-08-12T01:35:26;12.75;;;5.80;;
21492;SDS011;10908;50.690;4.400;2023-08-12T01:38:02;14.90;;;5.78;;
21492;SDS011;10908;50.690;4.400;2023-08-12T01:40:31;12.20;;;5.50;;
21492;SDS011;10908;50.690;4.400;2023-08-12T01:42:58;15.07;;;6.25;;
21492;SDS011;10908;50.690;4.400;2023-08-12T01:45:25;13.70;;;5.90;;
21492;SDS011;10908;50.690;4.400;2023-08-12T01:47:51;13.00;;;5.88;;
21492;SDS011;10908;50.690;4.400;2023-08-12T01:50:17;12.52;;;5.78;;
21492;SDS011;10908;50.690;4.400;2023-08-12T01:52:44;15.45;;;5.68;;
21492;SDS011;10908;50.690;4.400;2023-08-12T01:55:09;11.32;;;6.03;;
21492;SDS011;10908;50.690;4.400;2023-08-12T01:57:35;14.73;;;5.85;;
21492;SDS011;10908;50.690;4.400;2023-08-12T02:00:01;14.00;;;5.32;;
21492;SDS011;10908;50.690;4.400;2023-08-12T02:02:27;13.07;;;6.03;;
21492;SDS011;10908;50.690;4.400;2023-08-12T02:04:53;12.13;;;5.70;;
21492;SDS011;10908;50.690;4.400;2023-08-12T02:07:18;13.65;;;5.50;;
21492;SDS011;10908;50.690;4.400;2023-08-12T02:09:44;13.50;;;5.50;;
21492;SDS011;10908;50.690;4.400;2023-08-12T02:12:10;12.40;;;5.75;;
21492;SDS011;10908;50.690;4.400;2023-08-12T02:14:35;14.25;;;5.70;;
21492;SDS011;10908;50.690;4.400;2023-08-12T02:17:02;10.75;;;5.43;;
21492;SDS011;10908;50.690;4.400;2023-08-12T02:19:31;12.25;;;6.05;;
21492;SDS011;10908;50.690;4.400;2023-08-12T02:21:58;16.20;;;6.22;;
21492;SDS011;10908;50.690;4.400;2023-08-12T02:24:24;11.60;;;6.13;;
21492;SDS011;10908;50.690;4.400;2023-08-12T02:26:50;11.30;;;5.45;;
21492;SDS011;10908;50.690;4.400;2023-08-12T02:29:15;11.50;;;5.57;;
21492;SDS011;10908;50.690;4.400;2023-08-12T02:31:41;10.73;;;5.68;;
21492;SDS011;10908;50.690;4.400;2023-08-12T02:34:07;11.57;;;5.75;;
21492;SDS011;10908;50.690;4.400;2023-08-12T02:36:32;15.48;;;5.60;;
21492;SDS011;10908;50.690;4.400;2023-08-12T02:38:58;15.25;;;6.22;;
21492;SDS011;10908;50.690;4.400;2023-08-12T02:41:24;14.75;;;6.35;;
21492;SDS011;10908;50.690;4.400;2023-08-12T02:43:50;12.57;;;6.65;;
21492;SDS011;10908;50.690;4.400;2023-08-12T02:46:15;13.82;;;6.32;;
21492;SDS011;10908;50.690;4.400;2023-08-12T02:48:42;12.70;;;6.47;;
21492;SDS011;10908;50.690;4.400;2023-08-12T02:51:08;15.10;;;6.75;;
21492;SDS011;10908;50.690;4.400;2023-08-12T02:53:35;14.60;;;6.22;;
21492;SDS011;10908;50.690;4.400;2023-08-12T02:56:00;11.85;;;6.35;;
21492;SDS011;10908;50.690;4.400;2023-08-12T02:58:26;12.48;;;6.10;;
21492;SDS011;10908;50.690;4.400;2023-08-12T03:00:54;11.65;;;6.18;;
21492;SDS011;10908;50.690;4.400;2023-08-12T03:03:20;12.55;;;6.15;;
21492;SDS011;10908;50.690;4.400;2023-08-12T03:05:47;11.60;;;6.13;;
21492;SDS011;10908;50.690;4.400;2023-08-12T03:08:13;14.25;;;6.38;;
21492;SDS011;10908;50.690;4.400;2023-08-12T03:10:40;16.65;;;6.45;;
21492;SDS011;10908;50.690;4.400;2023-08-12T03:13:07;14.30;;;6.13;;
21492;SDS011;10908;50.690;4.400;2023-08-12T03:15:33;18.88;;;6.70;;
21492;SDS011;10908;50.690;4.400;2023-08-12T03:17:58;14.07;;;6.38;;
21492;SDS011;10908;50.690;4.400;2023-08-12T03:20:24;16.63;;;6.82;;
21492;SDS011;10908;50.690;4.400;2023-08-12T03:22:50;15.32;;;6.30;;
21492;SDS011;10908;50.690;4.400;2023-08-12T03:25:15;12.48;;;6.25;;
21492;SDS011;10908;50.690;4.400;2023-08-12T03:27:42;12.57;;;6.60;;
21492;SDS011;10908;50.690;4.400;2023-08-12T03:30:08;11.35;;;6.40;;
21492;SDS011;10908;50.690;4.400;2023-08-12T03:32:34;11.80;;;6.47;;
21492;SDS011;10908;50.690;4.400;2023-08-12T03:35:00;10.80;;;6.10;;
21492;SDS011;10908;50.690;4.400;2023-08-12T03:37:25;10.13;;;5.80;;
21492;SDS011;10908;50.690;4.400;2023-08-12T03:39:51;11.25;;;5.70;;
21492;SDS011;10908;50.690;4.400;2023-08-12T03:42:17;9.88;;;6.03;;
21492;SDS011;10908;50.690;4.400;2023-08-12T03:44:43;9.23;;;5.40;;
21492;SDS011;10908;50.690;4.400;2023-08-12T03:47:09;10.60;;;5.88;;
21492;SDS011;10908;50.690;4.400;2023-08-12T03:49:35;9.23;;;5.82;;
21492;SDS011;10908;50.690;4.400;2023-08-12T03:52:01;8.43;;;5.57;;
21492;SDS011;10908;50.690;4.400;2023-08-12T03:54:28;13.93;;;6.07;;
21492;SDS011;10908;50.690;4.400;2023-08-12T03:56:54;10.25;;;6.18;;
21492;SDS011;10908;50.690;4.400;2023-08-12T03:59:19;11.75;;;6.22;;
21492;SDS011;10908;50.690;4.400;2023-08-12T04:01:45;11.70;;;5.85;;
21492;SDS011;10908;50.690;4.400;2023-08-12T04:04:10;10.68;;;6.32;;
21492;SDS011;10908;50.690;4.400;2023-08-12T04:06:36;10.45;;;6.45;;
21492;SDS011;10908;50.690;4.400;2023-08-12T04:09:02;10.30;;;6.80;;
21492;SDS011;10908;50.690;4.400;2023-08-12T04:11:29;11.82;;;6.80;;
21492;SDS011;10908;50.690;4.400;2023-08-12T04:13:54;11.82;;;6.30;;
21492;SDS011;10908;50.690;4.400;2023-08-12T04:16:20;10.10;;;5.45;;
21492;SDS011;10908;50.690;4.400;2023-08-12T04:18:46;8.52;;;5.30;;
21492;SDS011;10908;50.690;4.400;2023-08-12T04:21:13;8.80;;;5.30;;
21492;SDS011;10908;50.690;4.400;2023-08-12T04:23:39;10.43;;;4.97;;
21492;SDS011;10908;50.690;4.400;2023-08-12T04:26:04;8.23;;;4.95;;
21492;SDS011;10908;50.690;4.400;2023-08-12T04:28:30;8.23;;;4.65;;
21492;SDS011;10908;50.690;4.400;2023-08-12T04:30:56;9.48;;;5.10;;
21492;SDS011;10908;50.690;4.400;2023-08-12T04:33:22;8.40;;;5.15;;
21492;SDS011;10908;50.690;4.400;2023-08-12T04:35:49;9.77;;;4.90;;
21492;SDS011;10908;50.690;4.400;2023-08-12T04:38:15;9.35;;;4.50;;
21492;SDS011;10908;50.690;4.400;2023-08-12T04:40:41;9.30;;;4.53;;
21492;SDS011;10908;50.690;4.400;2023-08-12T04:43:07;7.43;;;4.10;;
21492;SDS011;10908;50.690;4.400;2023-08-12T04:45:34;8.70;;;4.20;;
21492;SDS011;10908;50.690;4.400;2023-08-12T04:48:00;7.22;;;3.70;;
21492;SDS011;10908;50.690;4.400;2023-08-12T04:50:29;5.22;;;3.40;;
21492;SDS011;10908;50.690;4.400;2023-08-12T04:52:56;7.05;;;3.25;;
21492;SDS011;10908;50.690;4.400;2023-08-12T04:55:21;8.68;;;3.65;;
21492;SDS011;10908;50.690;4.400;2023-08-12T04:57:49;6.22;;;3.30;;
21492;SDS011;10908;50.690;4.400;2023-08-12T05:00:15;6.35;;;3.28;;
21492;SDS011;10908;50.690;4.400;2023-08-12T05:02:42;7.13;;;3.15;;
21492;SDS011;10908;50.690;4.400;2023-08-12T05:05:08;7.05;;;3.00;;
21492;SDS011;10908;50.690;4.400;2023-08-12T05:07:34;6.40;;;3.08;;
21492;SDS011;10908;50.690;4.400;2023-08-12T05:09:59;5.97;;;2.80;;
21492;SDS011;10908;50.690;4.400;2023-08-12T05:12:27;5.15;;;2.88;;
21492;SDS011;10908;50.690;4.400;2023-08-12T05:14:53;4.80;;;2.80;;
21492;SDS011;10908;50.690;4.400;2023-08-12T05:17:19;5.85;;;2.92;;
21492;SDS011;10908;50.690;4.400;2023-08-12T05:19:44;6.22;;;3.00;;
21492;SDS011;10908;50.690;4.400;2023-08-12T05:22:10;6.05;;;2.42;;
21492;SDS011;10908;50.690;4.400;2023-08-12T05:24:36;5.85;;;2.80;;
21492;SDS011;10908;50.690;4.400;2023-08-12T05:27:02;6.32;;;2.90;;
21492;SDS011;10908;50.690;4.400;2023-08-12T05:29:29;5.22;;;2.60;;
21492;SDS011;10908;50.690;4.400;2023-08-12T05:31:55;4.50;;;2.53;;
21492;SDS011;10908;50.690;4.400;2023-08-12T05:34:23;5.13;;;2.42;;
21492;SDS011;10908;50.690;4.400;2023-08-12T05:36:48;4.75;;;2.25;;
21492;SDS011;10908;50.690;4.400;2023-08-12T05:39:14;5.80;;;2.35;;
21492;SDS011;10908;50.690;4.400;2023-08-12T05:41:43;4.40;;;2.17;;
21492;SDS011;10908;50.690;4.400;2023-08-12T05:44:09;4.25;;;1.88;;
21492;SDS011;10908;50.690;4.400;2023-08-12T05:46:36;4.00;;;1.98;;
21492;SDS011;10908;50.690;4.400;2023-08-12T05:49:01;4.75;;;2.00;;
21492;SDS011;10908;50.690;4.400;2023-08-12T05:51:27;5.30;;;2.10;;
21492;SDS011;10908;50.690;4.400;2023-08-12T05:53:53;4.95;;;2.20;;
21492;SDS011;10908;50.690;4.400;2023-08-12T05:56:18;4.30;;;1.95;;
21492;SDS011;10908;50.690;4.400;2023-08-12T05:58:45;4.45;;;1.88;;
21492;SDS011;10908;50.690;4.400;2023-08-12T06:01:11;4.68;;;1.60;;
21492;SDS011;10908;50.690;4.400;2023-08-12T06:03:37;3.10;;;1.35;;
21492;SDS011;10908;50.690;4.400;2023-08-12T06:06:03;4.57;;;1.50;;
21492;SDS011;10908;50.690;4.400;2023-08-12T06:08:29;10.75;;;1.50;;
21492;SDS011;10908;50.690;4.400;2023-08-12T06:10:54;3.72;;;1.15;;
21492;SDS011;10908;50.690;4.400;2023-08-12T06:13:20;2.78;;;1.02;;
21492;SDS011;10908;50.690;4.400;2023-08-12T06:15:45;4.82;;;0.95;;
21492;SDS011;10908;50.690;4.400;2023-08-12T06:18:11;2.70;;;0.90;;
21492;SDS011;10908;50.690;4.400;2023-08-12T06:20:37;2.20;;;0.88;;
21492;SDS011;10908;50.690;4.400;2023-08-12T06:23:02;2.92;;;0.85;;
21492;SDS011;10908;50.690;4.400;2023-08-12T06:25:28;2.65;;;0.70;;
21492;SDS011;10908;50.690;4.400;2023-08-12T06:27:54;3.40;;;0.52;;
21492;SDS011;10908;50.690;4.400;2023-08-12T06:30:20;2.05;;;0.52;;
21492;SDS011;10908;50.690;4.400;2023-08-12T06:32:45;2.85;;;0.50;;
21492;SDS011;10908;50.690;4.400;2023-08-12T06:35:11;1.52;;;0.50;;
21492;SDS011;10908;50.690;4.400;2023-08-12T06:37:37;1.35;;;0.40;;
21492;SDS011;10908;50.690;4.400;2023-08-12T06:40:02;1.45;;;0.40;;
21492;SDS011;10908;50.690;4.400;2023-08-12T06:42:29;0.93;;;0.30;;
21492;SDS011;10908;50.690;4.400;2023-08-12T06:44:55;1.48;;;0.35;;
21492;SDS011;10908;50.690;4.400;2023-08-12T06:47:22;0.70;;;0.30;;
21492;SDS011;10908;50.690;4.400;2023-08-12T06:49:48;1.52;;;0.30;;
21492;SDS011;10908;50.690;4.400;2023-08-12T06:52:14;1.55;;;0.40;;
21492;SDS011;10908;50.690;4.400;2023-08-12T06:54:41;2.83;;;0.40;;
21492;SDS011;10908;50.690;4.400;2023-08-12T06:57:07;2.67;;;0.38;;
21492;SDS011;10908;50.690;4.400;2023-08-12T06:59:33;1.25;;;0.38;;
21492;SDS011;10908;50.690;4.400;2023-08-12T07:01:59;1.08;;;0.35;;
21492;SDS011;10908;50.690;4.400;2023-08-12T07:04:25;1.88;;;0.30;;
21492;SDS011;10908;50.690;4.400;2023-08-12T07:06:51;3.38;;;0.30;;
21492;SDS011;10908;50.690;4.400;2023-08-12T07:09:16;2.53;;;0.55;;
21492;SDS011;10908;50.690;4.400;2023-08-12T07:11:43;0.82;;;0.30;;
21492;SDS011;10908;50.690;4.400;2023-08-12T07:14:08;1.00;;;0.22;;
21492;SDS011;10908;50.690;4.400;2023-08-12T07:16:34;1.23;;;0.30;;
21492;SDS011;10908;50.690;4.400;2023-08-12T07:19:00;1.70;;;0.50;;
21492;SDS011;10908;50.690;4.400;2023-08-12T07:21:25;1.80;;;0.60;;
21492;SDS011;10908;50.690;4.400;2023-08-12T07:23:51;1.55;;;0.43;;
21492;SDS011;10908;50.690;4.400;2023-08-12T07:26:17;2.55;;;0.77;;
21492;SDS011;10908;50.690;4.400;2023-08-12T07:28:42;2.25;;;0.80;;
21492;SDS011;10908;50.690;4.400;2023-08-12T07:31:08;3.72;;;1.20;;
21492;SDS011;10908;50.690;4.400;2023-08-12T07:33:34;3.22;;;1.27;;
21492;SDS011;10908;50.690;4.400;2023-08-12T07:36:01;2.95;;;0.90;;
21492;SDS011;10908;50.690;4.400;2023-08-12T07:38:27;3.70;;;0.80;;
21492;SDS011;10908;50.690;4.400;2023-08-12T07:40:53;4.75;;;0.98;;
21492;SDS011;10908;50.690;4.400;2023-08-12T07:43:19;3.00;;;0.90;;
21492;SDS011;10908;50.690;4.400;2023-08-12T07:45:44;2.80;;;0.80;;
21492;SDS011;10908;50.690;4.400;2023-08-12T07:48:10;3.90;;;0.90;;
21492;SDS011;10908;50.690;4.400;2023-08-12T07:50:36;2.20;;;0.70;;
21492;SDS011;10908;50.690;4.400;2023-08-12T07:53:01;4.25;;;0.70;;
21492;SDS011;10908;50.690;4.400;2023-08-12T07:55:27;1.83;;;0.60;;
21492;SDS011;10908;50.690;4.400;2023-08-12T07:57:54;2.22;;;0.60;;
21492;SDS011;10908;50.690;4.400;2023-08-12T08:00:20;2.30;;;0.47;;
21492;SDS011;10908;50.690;4.400;2023-08-12T08:02:46;9.85;;;1.38;;
21492;SDS011;10908;50.690;4.400;2023-08-12T08:05:11;3.70;;;0.40;;
21492;SDS011;10908;50.690;4.400;2023-08-12T08:07:37;3.95;;;0.50;;
21492;SDS011;10908;50.690;4.400;2023-08-12T08:10:03;2.58;;;0.40;;
21492;SDS011;10908;50.690;4.400;2023-08-12T08:12:29;2.10;;;0.50;;
21492;SDS011;10908;50.690;4.400;2023-08-12T08:14:54;2.85;;;0.50;;
21492;SDS011;10908;50.690;4.400;2023-08-12T08:17:20;2.25;;;0.50;;
21492;SDS011;10908;50.690;4.400;2023-08-12T08:19:45;2.72;;;0.38;;
21492;SDS011;10908;50.690;4.400;2023-08-12T08:22:11;1.50;;;0.32;;
21492;SDS011;10908;50.690;4.400;2023-08-12T08:24:37;2.30;;;0.60;;
21492;SDS011;10908;50.690;4.400;2023-08-12T08:27:03;3.38;;;0.70;;
21492;SDS011;10908;50.690;4.400;2023-08-12T08:29:29;1.63;;;0.40;;
21492;SDS011;10908;50.690;4.400;2023-08-12T08:31:55;1.60;;;0.40;;
21492;SDS011;10908;50.690;4.400;2023-08-12T08:34:21;1.35;;;0.25;;
21492;SDS011;10908;50.690;4.400;2023-08-12T08:36:47;0.95;;;0.30;;
21492;SDS011;10908;50.690;4.400;2023-08-12T08:39:13;1.42;;;0.40;;
21492;SDS011;10908;50.690;4.400;2023-08-12T08:41:39;1.45;;;0.40;;
21492;SDS011;10908;50.690;4.400;2023-08-12T08:44:07;1.02;;;0.28;;
21492;SDS011;10908;50.690;4.400;2023-08-12T08:46:34;1.40;;;0.40;;
21492;SDS011;10908;50.690;4.400;2023-08-12T08:49:00;2.25;;;0.50;;
21492;SDS011;10908;50.690;4.400;2023-08-12T08:51:26;1.88;;;0.60;;
21492;SDS011;10908;50.690;4.400;2023-08-12T08:53:55;1.95;;;0.50;;
21492;SDS011;10908;50.690;4.400;2023-08-12T08:56:21;1.67;;;0.45;;
21492;SDS011;10908;50.690;4.400;2023-08-12T08:58:48;1.98;;;0.50;;
21492;SDS011;10908;50.690;4.400;2023-08-12T09:01:14;1.73;;;0.45;;
21492;SDS011;10908;50.690;4.400;2023-08-12T09:03:43;2.17;;;0.50;;
21492;SDS011;10908;50.690;4.400;2023-08-12T09:06:09;3.10;;;0.40;;
21492;SDS011;10908;50.690;4.400;2023-08-12T09:08:35;3.22;;;0.60;;
21492;SDS011;10908;50.690;4.400;2023-08-12T09:11:02;2.13;;;0.50;;
21492;SDS011;10908;50.690;4.400;2023-08-12T09:13:29;2.38;;;0.52;;
21492;SDS011;10908;50.690;4.400;2023-08-12T09:15:55;2.63;;;0.68;;
21492;SDS011;10908;50.690;4.400;2023-08-12T09:18:21;2.00;;;0.40;;
21492;SDS011;10908;50.690;4.400;2023-08-12T09:20:53;4.35;;;0.80;;
21492;SDS011;10908;50.690;4.400;2023-08-12T09:23:18;2.75;;;0.57;;
21492;SDS011;10908;50.690;4.400;2023-08-12T09:25:44;4.60;;;0.70;;
21492;SDS011;10908;50.690;4.400;2023-08-12T09:28:11;1.83;;;0.50;;
21492;SDS011;10908;50.690;4.400;2023-08-12T09:30:37;3.83;;;0.77;;
21492;SDS011;10908;50.690;4.400;2023-08-12T09:33:04;2.88;;;0.77;;
21492;SDS011;10908;50.690;4.400;2023-08-12T09:35:39;4.25;;;0.70;;
21492;SDS011;10908;50.690;4.400;2023-08-12T09:38:07;4.13;;;0.93;;
21492;SDS011;10908;50.690;4.400;2023-08-12T09:40:36;4.00;;;0.90;;
21492;SDS011;10908;50.690;4.400;2023-08-12T09:43:03;4.05;;;1.15;;
21492;SDS011;10908;50.690;4.400;2023-08-12T09:45:30;5.97;;;1.10;;
21492;SDS011;10908;50.690;4.400;2023-08-12T09:47:56;4.43;;;1.10;;
21492;SDS011;10908;50.690;4.400;2023-08-12T09:50:23;4.13;;;0.85;;
21492;SDS011;10908;50.690;4.400;2023-08-12T09:52:52;3.13;;;1.00;;
21492;SDS011;10908;50.690;4.400;2023-08-12T09:55:20;5.28;;;1.27;;
21492;SDS011;10908;50.690;4.400;2023-08-12T09:57:53;4.00;;;1.60;;
21492;SDS011;10908;50.690;4.400;2023-08-12T10:00:20;7.03;;;1.58;;
21492;SDS011;10908;50.690;4.400;2023-08-12T10:02:48;4.90;;;1.38;;
21492;SDS011;10908;50.690;4.400;2023-08-12T10:05:24;4.55;;;1.27;;
21492;SDS011;10908;50.690;4.400;2023-08-12T10:07:55;3.97;;;1.48;;
21492;SDS011;10908;50.690;4.400;2023-08-12T10:10:22;5.95;;;1.80;;
21492;SDS011;10908;50.690;4.400;2023-08-12T10:12:48;3.97;;;1.50;;
21492;SDS011;10908;50.690;4.400;2023-08-12T10:15:15;3.80;;;1.08;;
21492;SDS011;10908;50.690;4.400;2023-08-12T10:17:41;6.07;;;1.17;;
21492;SDS011;10908;50.690;4.400;2023-08-12T10:20:11;5.07;;;0.88;;
21492;SDS011;10908;50.690;4.400;2023-08-12T10:22:39;3.70;;;1.23;;
21492;SDS011;10908;50.690;4.400;2023-08-12T10:25:08;7.13;;;1.13;;
21492;SDS011;10908;50.690;4.400;2023-08-12T10:27:36;6.35;;;1.00;;
21492;SDS011;10908;50.690;4.400;2023-08-12T10:30:06;6.03;;;1.08;;
21492;SDS011;10908;50.690;4.400;2023-08-12T10:32:33;4.82;;;1.20;;
21492;SDS011;10908;50.690;4.400;2023-08-12T10:34:59;6.40;;;1.00;;
21492;SDS011;10908;50.690;4.400;2023-08-12T10:37:26;6.05;;;1.35;;
21492;SDS011;10908;50.690;4.400;2023-08-12T10:39:53;6.28;;;1.65;;
21492;SDS011;10908;50.690;4.400;2023-08-12T10:45:10;7.72;;;2.28;;
21492;SDS011;10908;50.690;4.400;2023-08-12T10:47:40;5.25;;;2.60;;
21492;SDS011;10908;50.690;4.400;2023-08-12T10:50:16;7.93;;;2.55;;
21492;SDS011;10908;50.690;4.400;2023-08-12T10:52:48;6.88;;;2.30;;
21492;SDS011;10908;50.690;4.400;2023-08-12T10:55:24;5.15;;;1.83;;
21492;SDS011;10908;50.690;4.400;2023-08-12T10:57:53;5.53;;;1.90;;
21492;SDS011;10908;50.690;4.400;2023-08-12T11:00:26;5.82;;;1.92;;
21492;SDS011;10908;50.690;4.400;2023-08-12T11:02:54;6.68;;;1.65;;
21492;SDS011;10908;50.690;4.400;2023-08-12T11:05:22;9.05;;;1.67;;
21492;SDS011;10908;50.690;4.400;2023-08-12T11:10:27;6.35;;;1.40;;
21492;SDS011;10908;50.690;4.400;2023-08-12T11:12:56;6.18;;;1.73;;
21492;SDS011;10908;50.690;4.400;2023-08-12T11:15:33;8.73;;;1.70;;
21492;SDS011;10908;50.690;4.400;2023-08-12T11:18:13;6.70;;;1.75;;
21492;SDS011;10908;50.690;4.400;2023-08-12T11:20:44;7.88;;;1.58;;
21492;SDS011;10908;50.690;4.400;2023-08-12T11:23:11;6.40;;;1.63;;
21492;SDS011;10908;50.690;4.400;2023-08-12T11:25:38;8.15;;;2.00;;
21492;SDS011;10908;50.690;4.400;2023-08-12T11:28:05;5.18;;;1.80;;
21492;SDS011;10908;50.690;4.400;2023-08-12T11:30:32;4.20;;;1.58;;
21492;SDS011;10908;50.690;4.400;2023-08-12T11:32:59;5.68;;;1.65;;
21492;SDS011;10908;50.690;4.400;2023-08-12T11:35:26;6.68;;;1.92;;
21492;SDS011;10908;50.690;4.400;2023-08-12T11:37:52;6.47;;;2.10;;
21492;SDS011;10908;50.690;4.400;2023-08-12T11:40:21;5.38;;;1.90;;
21492;SDS011;10908;50.690;4.400;2023-08-12T11:42:47;6.38;;;1.60;;
21492;SDS011;10908;50.690;4.400;2023-08-12T11:45:24;4.82;;;1.60;;
21492;SDS011;10908;50.690;4.400;2023-08-12T11:47:51;5.93;;;1.38;;
21492;SDS011;10908;50.690;4.400;2023-08-12T11:50:18;6.75;;;1.35;;
21492;SDS011;10908;50.690;4.400;2023-08-12T11:52:46;6.20;;;1.30;;
21492;SDS011;10908;50.690;4.400;2023-08-12T11:55:13;5.80;;;1.08;;
21492;SDS011;10908;50.690;4.400;2023-08-12T11:57:39;4.70;;;1.25;;
21492;SDS011;10908;50.690;4.400;2023-08-12T12:00:07;6.10;;;1.10;;
21492;SDS011;10908;50.690;4.400;2023-08-12T12:02:44;3.97;;;0.98;;
21492;SDS011;10908;50.690;4.400;2023-08-12T12:05:18;4.93;;;0.93;;
21492;SDS011;10908;50.690;4.400;2023-08-12T12:07:48;7.40;;;1.25;;
21492;SDS011;10908;50.690;4.400;2023-08-12T12:10:25;5.32;;;1.10;;
21492;SDS011;10908;50.690;4.400;2023-08-12T12:12:56;5.32;;;0.98;;
21492;SDS011;10908;50.690;4.400;2023-08-12T12:15:23;4.60;;;1.00;;
21492;SDS011;10908;50.690;4.400;2023-08-12T12:17:50;6.88;;;0.95;;
21492;SDS011;10908;50.690;4.400;2023-08-12T12:20:16;5.38;;;1.05;;
21492;SDS011;10908;50.690;4.400;2023-08-12T12:22:43;4.72;;;1.00;;
21492;SDS011;10908;50.690;4.400;2023-08-12T12:25:11;5.30;;;1.45;;
21492;SDS011;10908;50.690;4.400;2023-08-12T12:27:39;7.22;;;1.77;;
21492;SDS011;10908;50.690;4.400;2023-08-12T12:30:09;4.10;;;1.15;;
21492;SDS011;10908;50.690;4.400;2023-08-12T12:32:37;5.47;;;1.20;;
21492;SDS011;10908;50.690;4.400;2023-08-12T12:35:03;7.80;;;1.13;;
21492;SDS011;10908;50.690;4.400;2023-08-12T12:37:30;5.60;;;1.20;;
21492;SDS011;10908;50.690;4.400;2023-08-12T12:39:55;4.93;;;0.95;;
21492;SDS011;10908;50.690;4.400;2023-08-12T12:42:21;5.38;;;1.00;;
21492;SDS011;10908;50.690;4.400;2023-08-12T12:44:47;3.80;;;1.02;;
21492;SDS011;10908;50.690;4.400;2023-08-12T12:47:13;6.57;;;1.27;;
21492;SDS011;10908;50.690;4.400;2023-08-12T12:49:39;7.35;;;1.35;;
21492;SDS011;10908;50.690;4.400;2023-08-12T12:52:08;4.65;;;1.15;;
21492;SDS011;10908;50.690;4.400;2023-08-12T12:54:34;4.00;;;1.05;;
21492;SDS011;10908;50.690;4.400;2023-08-12T12:57:00;4.78;;;1.02;;
21492;SDS011;10908;50.690;4.400;2023-08-12T12:59:26;4.28;;;1.17;;
21492;SDS011;10908;50.690;4.400;2023-08-12T13:01:52;7.22;;;1.10;;
21492;SDS011;10908;50.690;4.400;2023-08-12T13:04:18;4.65;;;1.27;;
21492;SDS011;10908;50.690;4.400;2023-08-12T13:06:44;5.78;;;1.20;;
21492;SDS011;10908;50.690;4.400;2023-08-12T13:09:11;6.93;;;1.10;;
21492;SDS011;10908;50.690;4.400;2023-08-12T13:11:37;5.03;;;1.08;;
21492;SDS011;10908;50.690;4.400;2023-08-12T13:14:03;5.70;;;1.17;;
21492;SDS011;10908;50.690;4.400;2023-08-12T13:16:29;6.60;;;1.30;;
21492;SDS011;10908;50.690;4.400;2023-08-12T13:18:55;5.25;;;1.15;;
21492;SDS011;10908;50.690;4.400;2023-08-12T13:21:23;5.75;;;1.40;;
21492;SDS011;10908;50.690;4.400;2023-08-12T13:23:50;6.63;;;1.23;;
21492;SDS011;10908;50.690;4.400;2023-08-12T13:26:16;6.05;;;1.02;;
21492;SDS011;10908;50.690;4.400;2023-08-12T13:28:41;4.20;;;1.20;;
21492;SDS011;10908;50.690;4.400;2023-08-12T13:31:08;5.43;;;1.20;;
21492;SDS011;10908;50.690;4.400;2023-08-12T13:33:34;7.30;;;1.30;;
21492;SDS011;10908;50.690;4.400;2023-08-12T13:36:00;7.00;;;1.17;;
21492;SDS011;10908;50.690;4.400;2023-08-12T13:38:26;4.88;;;1.00;;
21492;SDS011;10908;50.690;4.400;2023-08-12T13:40:52;4.15;;;1.02;;
21492;SDS011;10908;50.690;4.400;2023-08-12T13:43:17;6.82;;;1.02;;
21492;SDS011;10908;50.690;4.400;2023-08-12T13:45:43;6.38;;;1.10;;
21492;SDS011;10908;50.690;4.400;2023-08-12T13:48:09;5.07;;;0.93;;
21492;SDS011;10908;50.690;4.400;2023-08-12T13:50:35;5.65;;;1.02;;
21492;SDS011;10908;50.690;4.400;2023-08-12T13:53:01;7.57;;;1.08;;
21492;SDS011;10908;50.690;4.400;2023-08-12T13:55:28;4.95;;;0.90;;
21492;SDS011;10908;50.690;4.400;2023-08-12T13:57:53;5.00;;;1.00;;
21492;SDS011;10908;50.690;4.400;2023-08-12T14:00:19;6.70;;;1.13;;
21492;SDS011;10908;50.690;4.400;2023-08-12T14:02:45;6.88;;;1.10;;
21492;SDS011;10908;50.690;4.400;2023-08-12T14:05:13;5.70;;;1.20;;
21492;SDS011;10908;50.690;4.400;2023-08-12T14:07:39;6.18;;;1.10;;
21492;SDS011;10908;50.690;4.400;2023-08-12T14:10:06;5.38;;;1.13;;
21492;SDS011;10908;50.690;4.400;2023-08-12T14:12:32;4.47;;;1.10;;
21492;SDS011;10908;50.690;4.400;2023-08-12T14:14:58;4.72;;;0.98;;
21492;SDS011;10908;50.690;4.400;2023-08-12T14:17:23;7.25;;;1.30;;
21492;SDS011;10908;50.690;4.400;2023-08-12T14:19:50;5.63;;;1.17;;
21492;SDS011;10908;50.690;4.400;2023-08-12T14:22:16;7.18;;;1.00;;
21492;SDS011;10908;50.690;4.400;2023-08-12T14:24:42;5.82;;;1.35;;
21492;SDS011;10908;50.690;4.400;2023-08-12T14:27:09;5.50;;;0.98;;
21492;SDS011;10908;50.690;4.400;2023-08-12T14:29:35;6.45;;;1.23;;
21492;SDS011;10908;50.690;4.400;2023-08-12T14:32:01;5.75;;;1.20;;
21492;SDS011;10908;50.690;4.400;2023-08-12T14:34:27;5.18;;;1.25;;
21492;SDS011;10908;50.690;4.400;2023-08-12T14:36:52;4.70;;;0.90;;
21492;SDS011;10908;50.690;4.400;2023-08-12T14:39:18;4.40;;;0.90;;
21492;SDS011;10908;50.690;4.400;2023-08-12T14:41:44;5.13;;;1.10;;
21492;SDS011;10908;50.690;4.400;2023-08-12T14:44:09;5.40;;;1.17;;
21492;SDS011;10908;50.690;4.400;2023-08-12T14:46:35;5.80;;;1.48;;
21492;SDS011;10908;50.690;4.400;2023-08-12T14:49:01;9.73;;;1.15;;